Time;durP1;ratioP1;P1;durP2;ratioP2;P2;SDS_P1;SDS_P2;PMS_P1;PMS_P2;Temp;Humidity;BMP_temperature;BMP_pressure;BME280_temperature;BME280_humidity;BME280_pressure;Samples;Min_cycle;Max_cycle;Signal;HPM_P1;HPM_P2
2022/02/27 00:02:20;;;;;;;;;;;;;;;-4.41;75.05;103516.09;4861303;29;19939;-64
2022/02/27 00:04:45;;;;;;;;;;;;;;;-4.40;75.36;103523.03;4860946;29;19973;-64
2022/02/27 00:07:10;;;;;;;;;;;;;;;-4.40;74.88;103523.91;4861060;29;19931;-64
2022/02/27 00:09:36;;;;;;;;;;;;;;;-4.41;75.56;103536.91;4861553;29;19928;-64
2022/02/27 00:12:01;;;;;;;;;;;;;;;-4.42;75.22;103540.38;4861296;29;19933;-62
2022/02/27 00:14:26;;;;;;;;;;;;;;;-4.46;75.73;103531.72;4861133;29;19976;-63
2022/02/27 00:16:52;;;;;;;;;;;;;;;-4.48;75.53;103529.97;4860966;29;19924;-66
2022/02/27 00:19:17;;;;;;;;;;;;;;;-4.48;74.99;103525.66;4861035;29;20264;-66
2022/02/27 00:21:47;;;;;;;;;;;;;;;-4.47;74.91;103521.31;4860709;29;20292;-65
2022/02/27 00:24:37;;;;;;;;;;;;;;;-4.49;75.14;103528.25;4861102;29;19935;-65
2022/02/27 00:27:03;;;;;;;;;;;;;;;-4.48;75.40;103535.19;4850729;29;19991;-64
2022/02/27 00:29:28;;;;;;;;;;;;;;;-4.51;75.30;103535.19;4854163;29;19924;-63
2022/02/27 00:31:54;;;;;;;;;;;;;;;-4.56;75.42;103531.72;4860685;29;19972;-64
2022/02/27 00:34:19;;;;;;;;;;;;;;;-4.61;75.29;103530.84;4841078;29;19931;-64
2022/02/27 00:36:46;;;;;;;;;;;;;;;-4.67;75.92;103539.47;4856593;29;19924;-64
2022/02/27 00:39:11;;;;;;;;;;;;;;;-4.74;75.23;103533.41;4856560;29;19924;-64
2022/02/27 00:41:38;;;;;;;;;;;;;;;-4.81;75.19;103538.59;4860586;29;20312;-66
2022/02/27 00:44:04;;;;;;;;;;;;;;;-4.85;75.94;103532.53;4860693;29;19924;-65
2022/02/27 00:46:30;;;;;;;;;;;;;;;-4.87;75.42;103536.88;4841069;29;19925;-63
2022/02/27 00:48:55;;;;;;;;;;;;;;;-4.87;75.52;103546.41;4857371;29;20031;-65
2022/02/27 00:51:28;;;;;;;;;;;;;;;-4.85;75.32;103542.06;4861260;29;19949;-65
2022/02/27 00:53:54;;;;;;;;;;;;;;;-4.87;75.14;103542.06;4848567;29;20373;-65
2022/02/27 00:56:22;;;;;;;;;;;;;;;-4.94;75.28;103545.47;4848655;29;19973;-64
2022/02/27 00:58:50;;;;;;;;;;;;;;;-4.98;75.36;103554.13;4862041;29;19924;-64
2022/02/27 01:01:19;;;;;;;;;;;;;;;-5.02;75.46;103555.00;4863115;29;19924;-62
2022/02/27 01:03:45;;;;;;;;;;;;;;;-5.04;75.74;103562.78;4865016;29;20018;-64
2022/02/27 01:06:11;;;;;;;;;;;;;;;-5.00;75.58;103571.47;4861574;29;19924;-63
2022/02/27 01:08:36;;;;;;;;;;;;;;;-5.02;75.93;103568.84;4860218;29;19935;-64
2022/02/27 01:11:02;;;;;;;;;;;;;;;-5.04;75.80;103570.59;4860158;29;19924;-64
2022/02/27 01:13:27;;;;;;;;;;;;;;;-5.05;76.30;103574.06;4840250;29;19925;-66
2022/02/27 01:15:53;;;;;;;;;;;;;;;-5.05;75.44;103568.84;4856221;29;19925;-65
2022/02/27 01:18:18;;;;;;;;;;;;;;;-5.10;75.62;103574.91;4825319;29;19924;-66
2022/02/27 01:20:45;;;;;;;;;;;;;;;-5.11;75.82;103575.75;4855733;29;19932;-63
2022/02/27 01:23:10;;;;;;;;;;;;;;;-5.11;75.86;103570.56;4860141;29;19928;-63
2022/02/27 01:25:36;;;;;;;;;;;;;;;-5.10;76.43;103574.91;4859983;29;19929;-65
2022/02/27 01:28:05;;;;;;;;;;;;;;;-5.12;76.46;103582.69;4859740;29;19928;-63
2022/02/27 01:30:30;;;;;;;;;;;;;;;-5.12;76.11;103587.03;4859783;29;19930;-64
2022/02/27 01:32:56;;;;;;;;;;;;;;;-5.11;76.32;103586.16;4860460;29;20015;-65
2022/02/27 01:35:21;;;;;;;;;;;;;;;-5.08;76.23;103591.38;4859940;29;20031;-66
2022/02/27 01:37:47;;;;;;;;;;;;;;;-5.06;75.72;103587.91;4860053;29;19924;-64
2022/02/27 01:40:12;;;;;;;;;;;;;;;-5.06;75.95;103592.22;4842787;29;19932;-65
2022/02/27 01:42:38;;;;;;;;;;;;;;;-5.05;76.23;103591.38;4859842;29;19924;-65
2022/02/27 01:45:04;;;;;;;;;;;;;;;-5.06;75.76;103587.91;4859851;29;19979;-63
2022/02/27 01:47:29;;;;;;;;;;;;;;;-5.06;76.58;103592.22;4859981;29;20023;-66
2022/02/27 01:49:55;;;;;;;;;;;;;;;-5.07;75.91;103587.91;4859920;29;19964;-63
2022/02/27 01:52:21;;;;;;;;;;;;;;;-5.09;76.56;103598.28;4860116;29;19931;-65
2022/02/27 01:54:46;;;;;;;;;;;;;;;-5.11;75.82;103589.63;4859840;29;19928;-65
2022/02/27 01:57:12;;;;;;;;;;;;;;;-5.13;76.01;103593.06;4859908;29;19924;-65
2022/02/27 01:59:38;;;;;;;;;;;;;;;-5.15;76.25;103597.41;4859698;29;20396;-63
2022/02/27 02:02:04;;;;;;;;;;;;;;;-5.14;76.75;103600.00;4859853;29;20387;-66
2022/02/27 02:04:30;;;;;;;;;;;;;;;-5.12;76.57;103598.28;4859725;29;19928;-67
2022/02/27 02:06:55;;;;;;;;;;;;;;;-5.12;76.36;103602.59;4859851;29;19931;-63
2022/02/27 02:09:20;;;;;;;;;;;;;;;-5.08;76.36;103604.34;4839995;29;20308;-64
2022/02/27 02:11:46;;;;;;;;;;;;;;;-5.09;76.56;103602.63;4840106;29;19929;-66
2022/02/27 02:14:13;;;;;;;;;;;;;;;-5.16;76.32;103606.06;4858798;29;19931;-64
2022/02/27 02:16:39;;;;;;;;;;;;;;;-5.25;76.21;103611.19;4859806;29;19985;-64
2022/02/27 02:19:05;;;;;;;;;;;;;;;-5.31;76.77;103612.91;4859604;29;19924;-65
2022/02/27 02:21:39;;;;;;;;;;;;;;;-5.32;77.30;103613.75;4839819;29;20385;-65
2022/02/27 02:24:04;;;;;;;;;;;;;;;-5.30;77.11;103611.16;4857638;29;19935;-64
2022/02/27 02:26:30;;;;;;;;;;;;;;;-5.30;77.17;103619.81;4859454;29;19924;-65
2022/02/27 02:28:55;;;;;;;;;;;;;;;-5.27;76.96;103612.91;4860921;29;19935;-63
2022/02/27 02:31:21;;;;;;;;;;;;;;;-5.25;76.93;103616.38;4862962;29;19924;-67
2022/02/27 02:33:46;;;;;;;;;;;;;;;-5.26;76.63;103612.06;4863112;29;20412;-64
2022/02/27 02:36:11;;;;;;;;;;;;;;;-5.24;76.59;103618.13;4862848;29;19925;-65
2022/02/27 02:38:37;;;;;;;;;;;;;;;-5.24;76.59;103619.00;4862788;29;20311;-63
2022/02/27 02:41:02;;;;;;;;;;;;;;;-5.27;76.82;103633.69;4862770;29;19924;-64
2022/02/27 02:43:27;;;;;;;;;;;;;;;-5.30;77.17;103631.94;4862449;29;19928;-65
2022/02/27 02:45:53;;;;;;;;;;;;;;;-5.31;77.44;103635.41;4862487;29;20411;-66
2022/02/27 02:48:18;;;;;;;;;;;;;;;-5.34;76.90;103638.00;4843593;29;19931;-64
2022/02/27 02:50:44;;;;;;;;;;;;;;;-5.37;76.73;103633.66;4858941;29;19924;-62
2022/02/27 02:53:09;;;;;;;;;;;;;;;-5.37;77.60;103641.44;4862945;29;20302;-63
2022/02/27 02:55:34;;;;;;;;;;;;;;;-5.40;77.48;103635.38;4862664;29;19932;-65
2022/02/27 02:58:00;;;;;;;;;;;;;;;-5.44;77.10;103647.47;4862897;29;19931;-65
2022/02/27 03:00:25;;;;;;;;;;;;;;;-5.48;77.47;103645.72;4862996;29;19924;-65
2022/02/27 03:02:51;;;;;;;;;;;;;;;-5.51;76.95;103644.78;4862658;29;20027;-63
2022/02/27 03:05:16;;;;;;;;;;;;;;;-5.55;77.96;103640.44;4845652;29;19984;-64
2022/02/27 03:07:42;;;;;;;;;;;;;;;-5.60;77.38;103650.78;4862952;29;19931;-64
2022/02/27 03:10:08;;;;;;;;;;;;;;;-5.62;77.26;103648.19;4843703;29;19924;-64
2022/02/27 03:12:34;;;;;;;;;;;;;;;-5.62;77.88;103650.78;4863054;29;20012;-65
2022/02/27 03:15:00;;;;;;;;;;;;;;;-5.65;77.53;103658.56;4861609;29;20373;-64
2022/02/27 03:17:25;;;;;;;;;;;;;;;-5.66;78.04;103661.16;4862165;29;20026;-63
2022/02/27 03:19:51;;;;;;;;;;;;;;;-5.64;78.00;103664.63;4862755;29;19947;-64
2022/02/27 03:22:18;;;;;;;;;;;;;;;-5.62;77.73;103660.31;4855987;29;20380;-66
2022/02/27 03:24:43;;;;;;;;;;;;;;;-5.63;77.55;103655.97;4862495;29;20030;-65
2022/02/27 03:27:09;;;;;;;;;;;;;;;-5.67;78.21;103662.88;4862064;29;20023;-65
2022/02/27 03:29:34;;;;;;;;;;;;;;;-5.70;77.86;103656.78;4862114;29;19928;-64
2022/02/27 03:31:59;;;;;;;;;;;;;;;-5.71;77.79;103657.66;4862077;29;19931;-63
2022/02/27 03:34:25;;;;;;;;;;;;;;;-5.70;77.77;103664.56;4861976;29;20353;-65
2022/02/27 03:36:50;;;;;;;;;;;;;;;-5.69;78.30;103671.50;4861830;29;19957;-66
2022/02/27 03:39:16;;;;;;;;;;;;;;;-5.69;78.01;103671.50;4858901;29;19931;-64
2022/02/27 03:41:41;;;;;;;;;;;;;;;-5.66;77.86;103668.94;4861674;29;20022;-66
2022/02/27 03:44:07;;;;;;;;;;;;;;;-5.64;77.87;103670.69;4861803;29;20031;-64
2022/02/27 03:46:34;;;;;;;;;;;;;;;-5.66;78.16;103662.00;4861674;29;19971;-63
2022/02/27 03:49:01;;;;;;;;;;;;;;;-5.65;78.11;103665.47;4843092;29;20031;-66
2022/02/27 03:51:26;;;;;;;;;;;;;;;-5.67;77.93;103664.59;4861794;29;19935;-64
2022/02/27 03:53:52;;;;;;;;;;;;;;;-5.65;78.22;103670.66;4841984;29;19924;-65
2022/02/27 03:56:17;;;;;;;;;;;;;;;-5.65;78.35;103675.88;4861146;29;19980;-65
2022/02/27 03:58:43;;;;;;;;;;;;;;;-5.69;77.83;103680.16;4861670;29;19988;-66
2022/02/27 04:01:08;;;;;;;;;;;;;;;-5.74;77.96;103673.19;4843721;29;20316;-65
2022/02/27 04:03:33;;;;;;;;;;;;;;;-5.76;77.93;103673.19;4861412;29;19932;-67
2022/02/27 04:05:59;;;;;;;;;;;;;;;-5.78;78.05;103676.59;4842490;29;19924;-66
2022/02/27 04:08:24;;;;;;;;;;;;;;;-5.78;78.15;103690.47;4861280;29;19924;-64
2022/02/27 04:10:49;;;;;;;;;;;;;;;-5.76;78.02;103685.31;4841470;29;20433;-66
2022/02/27 04:13:15;;;;;;;;;;;;;;;-5.75;78.23;103692.22;4860835;29;19959;-64
2022/02/27 04:15:40;;;;;;;;;;;;;;;-5.72;78.11;103697.44;4861716;29;19924;-63
2022/02/27 04:18:05;;;;;;;;;;;;;;;-5.71;78.36;103699.19;4842928;29;20301;-65
2022/02/27 04:20:32;;;;;;;;;;;;;;;-5.68;78.48;103694.00;4860860;29;19924;-65
2022/02/27 04:22:58;;;;;;;;;;;;;;;-5.73;78.25;103699.16;4860849;29;19927;-64
2022/02/27 04:25:24;;;;;;;;;;;;;;;-5.74;78.28;103702.63;4860974;29;20460;-65
2022/02/27 04:27:49;;;;;;;;;;;;;;;-5.73;78.07;103703.50;4860994;29;19930;-64
2022/02/27 04:30:18;;;;;;;;;;;;;;;-5.71;77.80;103705.25;4861131;29;20307;-65
2022/02/27 04:32:43;;;;;;;;;;;;;;;-5.69;78.02;103713.03;4841319;29;20007;-63
2022/02/27 04:35:08;;;;;;;;;;;;;;;-5.72;78.16;103715.63;4859639;29;20362;-63
2022/02/27 04:37:34;;;;;;;;;;;;;;;-5.78;77.72;103702.56;4860954;29;19924;-66
2022/02/27 04:39:59;;;;;;;;;;;;;;;-5.83;77.85;103706.84;4860780;29;19931;-65
2022/02/27 04:42:25;;;;;;;;;;;;;;;-5.84;78.29;103708.56;4860704;29;19931;-65
2022/02/27 04:44:50;;;;;;;;;;;;;;;-5.82;78.04;103716.38;4860777;29;20385;-68
2022/02/27 04:47:15;;;;;;;;;;;;;;;-5.83;78.04;103720.69;4860619;29;20303;-64
2022/02/27 04:49:41;;;;;;;;;;;;;;;-5.84;78.19;103716.34;4860903;29;19980;-65
2022/02/27 04:52:06;;;;;;;;;;;;;;;-5.83;78.07;103730.19;4859763;29;19984;-64
2022/02/27 04:54:32;;;;;;;;;;;;;;;-5.82;78.33;103724.16;4861064;29;20241;-65
2022/02/27 04:56:57;;;;;;;;;;;;;;;-5.83;78.25;103720.69;4861012;29;20026;-65
2022/02/27 04:59:23;;;;;;;;;;;;;;;-5.83;77.84;103723.28;4860891;29;20034;-64
2022/02/27 05:01:49;;;;;;;;;;;;;;;-5.85;78.28;103717.22;4840871;29;19931;-66
2022/02/27 05:04:15;;;;;;;;;;;;;;;-5.89;77.61;103730.19;4860186;29;19928;-64
2022/02/27 05:06:40;;;;;;;;;;;;;;;-5.95;78.05;103731.00;4860636;29;19932;-65
2022/02/27 05:09:05;;;;;;;;;;;;;;;-5.99;78.27;103731.81;4860011;29;19947;-66
2022/02/27 05:11:31;;;;;;;;;;;;;;;-5.99;78.09;103734.44;4840842;29;19925;-63
2022/02/27 05:13:56;;;;;;;;;;;;;;;-6.01;77.95;103731.81;4857839;29;19935;-66
2022/02/27 05:16:22;;;;;;;;;;;;;;;-6.01;78.27;103741.31;4860378;29;20301;-65
2022/02/27 05:18:47;;;;;;;;;;;;;;;-5.97;78.54;103738.78;4860217;29;19928;-63
2022/02/27 05:21:16;;;;;;;;;;;;;;;-5.91;78.46;103737.09;4860470;29;19984;-66
2022/02/27 05:23:41;;;;;;;;;;;;;;;-5.88;78.25;103732.75;4859893;29;19928;-63
2022/02/27 05:26:07;;;;;;;;;;;;;;;-5.82;78.29;103742.31;4860145;29;19924;-64
2022/02/27 05:28:32;;;;;;;;;;;;;;;-5.82;78.19;103744.91;4860473;29;20011;-65
2022/02/27 05:30:57;;;;;;;;;;;;;;;-5.82;78.12;103731.94;4860016;29;19935;-62
2022/02/27 05:33:23;;;;;;;;;;;;;;;-5.79;77.63;103743.22;4840288;29;20381;-65
2022/02/27 05:35:48;;;;;;;;;;;;;;;-5.79;77.49;103744.94;4855894;29;20023;-66
2022/02/27 05:38:13;;;;;;;;;;;;;;;-5.80;77.42;103745.81;4859863;29;20109;-64
2022/02/27 05:40:39;;;;;;;;;;;;;;;-5.77;77.94;103733.75;4859840;29;19955;-64
2022/02/27 05:43:04;;;;;;;;;;;;;;;-5.72;77.20;103738.97;4860169;29;20081;-67
2022/02/27 05:45:30;;;;;;;;;;;;;;;-5.67;76.80;103732.09;4840731;29;19924;-64
2022/02/27 05:47:55;;;;;;;;;;;;;;;-5.63;76.88;103739.06;4856807;29;19924;-65
2022/02/27 05:50:21;;;;;;;;;;;;;;;-5.59;76.53;103746.00;4839968;29;19924;-65
2022/02/27 05:52:46;;;;;;;;;;;;;;;-5.56;76.52;103746.03;4855235;29;19928;-65
2022/02/27 05:55:11;;;;;;;;;;;;;;;-5.53;76.53;103748.66;4859680;29;19932;-67
2022/02/27 05:57:37;;;;;;;;;;;;;;;-5.51;76.64;103744.34;4840652;29;19928;-63
2022/02/27 06:00:04;;;;;;;;;;;;;;;-5.45;76.42;103749.59;4857634;29;19924;-69
2022/02/27 06:02:29;;;;;;;;;;;;;;;-5.40;76.24;103745.31;4857456;29;19924;-62
2022/02/27 06:04:54;;;;;;;;;;;;;;;-5.40;76.49;103745.31;4863400;29;20389;-69
2022/02/27 06:07:20;;;;;;;;;;;;;;;-5.42;75.84;103748.75;4863426;29;19931;-66
2022/02/27 06:09:45;;;;;;;;;;;;;;;-5.39;75.96;103743.59;4863516;29;19924;-74
2022/02/27 06:12:11;;;;;;;;;;;;;;;-5.39;75.67;103746.19;4847101;29;19972;-65
2022/02/27 06:14:36;;;;;;;;;;;;;;;-5.42;75.98;103747.03;4863436;29;19986;-65
2022/02/27 06:17:02;;;;;;;;;;;;;;;-5.41;76.13;103751.38;4863216;29;20388;-64
2022/02/27 06:19:27;;;;;;;;;;;;;;;-5.38;75.94;103751.41;4863821;29;19980;-62
2022/02/27 06:21:56;;;;;;;;;;;;;;;-5.37;75.45;103753.13;4847045;29;19938;-61
2022/02/27 06:24:25;;;;;;;;;;;;;;;-5.32;75.71;103747.97;4862820;29;19932;-63
2022/02/27 06:26:51;;;;;;;;;;;;;;;-5.33;74.96;103749.69;4863288;29;20011;-60
2022/02/27 06:29:16;;;;;;;;;;;;;;;-5.28;75.80;103748.84;4863708;29;19952;-63
2022/02/27 06:31:43;;;;;;;;;;;;;;;-5.24;75.30;103750.63;4863823;29;19928;-62
2022/02/27 06:34:08;;;;;;;;;;;;;;;-5.16;75.84;103748.97;4863270;29;19947;-63
2022/02/27 06:36:34;;;;;;;;;;;;;;;-5.07;75.00;103752.50;4862671;29;19925;-62
2022/02/27 06:39:00;;;;;;;;;;;;;;;-4.97;75.47;103763.81;4862966;29;19960;-61
2022/02/27 06:41:26;;;;;;;;;;;;;;;-4.89;74.90;103762.16;4862630;29;20327;-69
2022/02/27 06:44:08;;;;;;;;;;;;;;;-4.82;75.12;103763.03;4861911;29;19930;-67
2022/02/27 06:46:46;;;;;;;;;;;;;;;-4.75;74.28;103759.63;4830979;29;20373;-70
2022/02/27 06:49:14;;;;;;;;;;;;;;;-4.69;74.87;103764.84;4845910;29;19930;-64
2022/02/27 06:51:40;;;;;;;;;;;;;;;-4.61;73.94;103770.09;4845804;29;19923;-63
2022/02/27 06:54:05;;;;;;;;;;;;;;;-4.54;74.49;103771.88;4862445;29;20388;-65
2022/02/27 06:56:33;;;;;;;;;;;;;;;-4.47;74.35;103776.22;4845844;29;19928;-65
2022/02/27 06:58:59;;;;;;;;;;;;;;;-4.46;73.72;103773.63;4862066;29;20402;-67
2022/02/27 07:01:25;;;;;;;;;;;;;;;-4.45;73.21;103767.56;4845275;29;19924;-63
2022/02/27 07:04:03;;;;;;;;;;;;;;;-4.41;72.59;103765.84;4854535;29;20039;-62
2022/02/27 07:06:33;;;;;;;;;;;;;;;-4.33;73.14;103769.38;4855661;29;20373;-62
2022/02/27 07:09:00;;;;;;;;;;;;;;;-4.33;72.14;103774.56;4861478;29;19930;-61
2022/02/27 07:11:29;;;;;;;;;;;;;;;-4.29;72.50;103775.44;4844863;29;19924;-69
2022/02/27 07:13:55;;;;;;;;;;;;;;;-4.25;72.19;103779.81;4852675;29;19959;-67
2022/02/27 07:16:22;;;;;;;;;;;;;;;-4.21;72.10;103777.22;4844996;29;19960;-63
2022/02/27 07:18:49;;;;;;;;;;;;;;;-4.12;72.90;103778.97;4861930;29;20452;-66
2022/02/27 07:21:18;;;;;;;;;;;;;;;-4.10;72.57;103778.09;4845290;29;19993;-66
2022/02/27 07:23:44;;;;;;;;;;;;;;;-4.06;71.77;103790.25;4861735;29;19928;-70
2022/02/27 07:26:12;;;;;;;;;;;;;;;-4.04;71.55;103799.84;4862064;29;19981;-69
2022/02/27 07:28:38;;;;;;;;;;;;;;;-4.02;71.40;103798.97;4861537;29;20001;-68
2022/02/27 07:31:06;;;;;;;;;;;;;;;-3.97;71.93;103796.38;4861575;29;19924;-68
2022/02/27 07:33:34;;;;;;;;;;;;;;;-3.90;71.46;103796.41;4860568;29;19963;-72
2022/02/27 07:36:00;;;;;;;;;;;;;;;-3.89;71.02;103795.53;4861734;29;19963;-70
2022/02/27 07:38:26;;;;;;;;;;;;;;;-3.85;71.16;103799.88;4861418;29;19970;-69
2022/02/27 07:40:52;;;;;;;;;;;;;;;-3.81;70.82;103799.00;4861333;29;19972;-70
2022/02/27 07:43:19;;;;;;;;;;;;;;;-3.80;70.47;103803.34;4861383;29;19932;-67
2022/02/27 07:45:52;;;;;;;;;;;;;;;-3.72;70.27;103806.00;4829314;29;20575;-64
2022/02/27 07:48:17;;;;;;;;;;;;;;;-3.69;69.81;103805.13;4861093;29;19985;-63
2022/02/27 07:50:42;;;;;;;;;;;;;;;-3.62;70.91;103807.75;4861375;29;19924;-66
2022/02/27 07:53:11;;;;;;;;;;;;;;;-3.54;70.39;103811.22;4861415;29;19931;-68
2022/02/27 07:55:39;;;;;;;;;;;;;;;-3.50;69.97;103812.09;4861405;29;19924;-66
2022/02/27 07:58:05;;;;;;;;;;;;;;;-3.48;69.58;103816.44;4861083;29;19924;-72
2022/02/27 08:00:30;;;;;;;;;;;;;;;-3.46;69.32;103809.53;4860743;29;19971;-69
2022/02/27 08:02:56;;;;;;;;;;;;;;;-3.49;67.93;103809.50;4861411;29;19931;-67
2022/02/27 08:05:27;;;;;;;;;;;;;;;-3.44;67.72;103813.00;4860899;29;20308;-72
2022/02/27 08:07:55;;;;;;;;;;;;;;;-3.42;68.38;103810.38;4861177;29;20002;-68
2022/02/27 08:10:20;;;;;;;;;;;;;;;-3.45;67.32;103811.25;4861072;29;19924;-70
2022/02/27 08:12:49;;;;;;;;;;;;;;;-3.36;68.53;103809.53;4861240;29;19935;-68
2022/02/27 08:15:16;;;;;;;;;;;;;;;-3.36;67.57;103806.91;4861063;29;19931;-67
2022/02/27 08:17:51;;;;;;;;;;;;;;;-3.32;68.21;103816.47;4844321;29;19970;-71
2022/02/27 08:20:16;;;;;;;;;;;;;;;-3.28;67.73;103815.59;4859897;29;19963;-70
2022/02/27 08:22:42;;;;;;;;;;;;;;;-3.21;67.73;103819.94;4861344;29;19928;-73
2022/02/27 08:25:07;;;;;;;;;;;;;;;-3.13;67.62;103823.44;4855344;29;19932;-72
2022/02/27 08:27:36;;;;;;;;;;;;;;;-3.12;67.57;103814.75;4857559;29;20338;-74
2022/02/27 08:30:02;;;;;;;;;;;;;;;-3.11;66.53;103824.31;4861125;29;19931;-69
2022/02/27 08:32:28;;;;;;;;;;;;;;;-3.03;67.97;103813.88;4841110;29;20016;-65
2022/02/27 08:34:55;;;;;;;;;;;;;;;-2.93;67.40;103805.16;4841094;29;19935;-64
2022/02/27 08:37:23;;;;;;;;;;;;;;;-2.86;66.33;103807.78;4860291;29;20376;-66
2022/02/27 08:39:49;;;;;;;;;;;;;;;-2.79;66.84;103806.03;4857575;29;19925;-69
2022/02/27 08:42:22;;;;;;;;;;;;;;;-2.82;66.16;103806.03;4859853;29;20304;-66
2022/02/27 08:44:50;;;;;;;;;;;;;;;-2.89;65.66;103806.88;4860562;29;19956;-65
2022/02/27 08:47:15;;;;;;;;;;;;;;;-2.92;64.67;103809.50;4860715;29;19989;-64
2022/02/27 08:49:43;;;;;;;;;;;;;;;-2.84;65.55;103821.69;4860169;29;19978;-66
2022/02/27 08:52:09;;;;;;;;;;;;;;;-2.84;65.60;103811.25;4862930;29;19924;-69
2022/02/27 08:54:34;;;;;;;;;;;;;;;-2.79;65.00;103815.59;4860303;29;19931;-68
2022/02/27 08:57:00;;;;;;;;;;;;;;;-2.76;65.06;103823.41;4860492;29;20376;-70
2022/02/27 08:59:26;;;;;;;;;;;;;;;-2.67;64.90;103810.34;4825222;29;20442;-71
2022/02/27 09:01:51;;;;;;;;;;;;;;;-2.61;65.34;103820.75;4856544;29;19924;-71
2022/02/27 09:04:17;;;;;;;;;;;;;;;-2.54;64.65;103820.75;4860032;29;20049;-71
2022/02/27 09:06:42;;;;;;;;;;;;;;;-2.40;64.58;103828.53;4859904;29;19924;-69
2022/02/27 09:09:07;;;;;;;;;;;;;;;-2.34;65.22;103820.66;4859684;29;20388;-68
2022/02/27 09:11:33;;;;;;;;;;;;;;;-2.23;64.48;103824.13;4859911;29;20026;-68
2022/02/27 09:14:00;;;;;;;;;;;;;;;-2.28;63.24;103819.81;4859777;29;19924;-69
2022/02/27 09:16:26;;;;;;;;;;;;;;;-2.27;64.55;103813.72;4859887;29;19971;-66
2022/02/27 09:18:54;;;;;;;;;;;;;;;-2.32;64.35;103816.31;4840331;29;20024;-72
2022/02/27 09:21:21;;;;;;;;;;;;;;;-2.29;64.03;103808.50;4859686;29;20023;-67
2022/02/27 09:23:48;;;;;;;;;;;;;;;-2.23;62.82;103812.81;4859594;29;19935;-68
2022/02/27 09:26:14;;;;;;;;;;;;;;;-2.22;63.49;103809.34;4843163;29;20015;-67
2022/02/27 09:28:39;;;;;;;;;;;;;;;-2.18;64.11;103803.22;4859864;29;19979;-67
2022/02/27 09:31:05;;;;;;;;;;;;;;;-2.16;61.85;103801.47;4859546;29;19924;-68
2022/02/27 09:33:30;;;;;;;;;;;;;;;-2.22;62.37;103801.50;4842774;29;19928;-66
2022/02/27 09:36:02;;;;;;;;;;;;;;;-2.21;62.78;103798.88;4859111;29;19976;-66
2022/02/27 09:38:27;;;;;;;;;;;;;;;-2.26;62.18;103789.34;4859224;29;20357;-66
2022/02/27 09:40:53;;;;;;;;;;;;;;;-2.18;62.98;103787.56;4859728;29;20293;-64
2022/02/27 09:43:23;;;;;;;;;;;;;;;-2.13;60.61;103784.91;4852581;29;20027;-66
2022/02/27 09:45:50;;;;;;;;;;;;;;;-2.04;60.60;103780.50;4852822;29;20381;-67
2022/02/27 09:48:16;;;;;;;;;;;;;;;-1.97;60.54;103795.31;4857340;29;19936;-68
2022/02/27 09:50:41;;;;;;;;;;;;;;;-1.88;60.36;103794.38;4854863;29;20351;-69
2022/02/27 09:53:09;;;;;;;;;;;;;;;-1.81;60.25;103792.59;4859777;29;19928;-70
2022/02/27 09:55:35;;;;;;;;;;;;;;;-1.77;60.02;103792.56;4860331;29;19924;-72
2022/02/27 09:58:00;;;;;;;;;;;;;;;-1.67;59.96;103785.53;4827945;29;19975;-68
2022/02/27 10:00:27;;;;;;;;;;;;;;;-1.69;57.96;103795.13;4859273;29;19932;-68
2022/02/27 10:03:06;;;;;;;;;;;;;;;-1.76;58.65;103785.56;4842791;29;19934;-68
2022/02/27 10:05:36;;;;;;;;;;;;;;;-1.73;58.10;103796.03;4843084;29;19947;-67
2022/02/27 10:08:14;;;;;;;;;;;;;;;-1.72;57.84;103788.19;4859546;29;19927;-69
2022/02/27 10:11:23;;;;;;;;;;;;;;;-1.60;57.46;103793.31;4841837;29;20011;-68
2022/02/27 10:13:51;;;;;;;;;;;;;;;-1.51;57.99;103783.69;4837424;29;19925;-65
2022/02/27 10:16:45;;;;;;;;;;;;;;;-1.46;56.68;103790.59;4841847;29;19951;-70
2022/02/27 10:22:30;;;;;;;;;;;;;;;-1.30;56.27;103792.22;4779635;29;19930;-70
2022/02/27 10:25:28;;;;;;;;;;;;;;;-1.37;56.29;103794.91;4785526;29;19940;-73
2022/02/27 10:27:55;;;;;;;;;;;;;;;-1.34;55.97;103797.50;4859287;29;19935;-72
2022/02/27 10:30:39;;;;;;;;;;;;;;;-1.37;57.59;103795.78;4842368;29;20308;-71
2022/02/27 10:33:14;;;;;;;;;;;;;;;-1.34;57.07;103794.88;4858757;29;20418;-65
2022/02/27 10:35:51;;;;;;;;;;;;;;;-1.42;54.82;103796.69;4859158;29;19972;-68
2022/02/27 10:38:45;;;;;;;;;;;;;;;-1.37;56.33;103792.31;4842004;29;19935;-65
2022/02/27 10:41:14;;;;;;;;;;;;;;;-1.39;54.98;103792.31;4827509;29;20380;-67
2022/02/27 10:43:43;;;;;;;;;;;;;;;-1.30;57.10;103796.59;4858563;29;19991;-64
2022/02/27 10:46:09;;;;;;;;;;;;;;;-1.20;55.73;103798.25;4858649;29;19947;-65
2022/02/27 10:48:35;;;;;;;;;;;;;;;-1.18;55.23;103795.59;4826911;29;19987;-65
2022/02/27 10:51:10;;;;;;;;;;;;;;;-1.17;55.96;103792.97;4843503;29;19932;-66
2022/02/27 10:53:36;;;;;;;;;;;;;;;-1.20;55.05;103792.13;4845471;29;19928;-65
2022/02/27 10:56:04;;;;;;;;;;;;;;;-1.18;55.84;103786.00;4845393;29;20415;-64
2022/02/27 10:58:39;;;;;;;;;;;;;;;-1.20;53.33;103782.53;4861916;29;19932;-64
2022/02/27 11:01:09;;;;;;;;;;;;;;;-1.15;53.81;103774.69;4862067;29;19963;-63
2022/02/27 11:03:36;;;;;;;;;;;;;;;-1.13;55.17;103760.72;4861733;29;20403;-66
2022/02/27 11:06:02;;;;;;;;;;;;;;;-1.00;55.33;103756.22;4844763;29;19924;-64
2022/02/27 11:08:28;;;;;;;;;;;;;;;-0.93;52.99;103750.91;4844972;29;19931;-66
2022/02/27 11:10:54;;;;;;;;;;;;;;;-0.86;53.81;103753.47;4861445;29;19967;-69
2022/02/27 11:13:24;;;;;;;;;;;;;;;-0.81;52.10;103759.53;4844989;29;19924;-67
2022/02/27 11:15:50;;;;;;;;;;;;;;;-0.76;50.62;103757.72;4861663;29;19943;-67
2022/02/27 11:18:16;;;;;;;;;;;;;;;-0.67;52.84;103752.38;4845228;29;20019;-68
2022/02/27 11:20:41;;;;;;;;;;;;;;;-0.56;51.68;103754.91;4844533;29;19971;-68
2022/02/27 11:23:08;;;;;;;;;;;;;;;-0.48;52.06;103748.66;4861178;29;19985;-69
2022/02/27 11:25:36;;;;;;;;;;;;;;;-0.43;51.88;103752.09;4844972;29;19980;-66
2022/02/27 11:28:07;;;;;;;;;;;;;;;-0.50;48.75;103753.06;4861748;29;19932;-66
2022/02/27 11:30:35;;;;;;;;;;;;;;;-0.61;49.17;103747.06;4861402;29;19924;-64
2022/02/27 11:33:05;;;;;;;;;;;;;;;-0.61;47.96;103736.59;4829557;29;19924;-67
2022/02/27 11:35:43;;;;;;;;;;;;;;;-0.55;49.26;103739.16;4845065;29;19931;-67
2022/02/27 11:38:08;;;;;;;;;;;;;;;-0.51;49.72;103732.13;4861245;29;19931;-67
2022/02/27 11:40:41;;;;;;;;;;;;;;;-0.50;46.72;103732.13;4845136;29;19928;-71
2022/02/27 11:43:07;;;;;;;;;;;;;;;-0.43;47.70;103731.16;4844249;29;19933;-69
2022/02/27 11:45:32;;;;;;;;;;;;;;;-0.44;48.94;103726.78;4844554;29;19928;-69
2022/02/27 11:47:58;;;;;;;;;;;;;;;-0.50;47.03;103728.63;4861399;29;19924;-69
2022/02/27 11:50:24;;;;;;;;;;;;;;;-0.53;47.89;103716.44;4844715;29;19931;-67
2022/02/27 11:52:53;;;;;;;;;;;;;;;-0.55;47.97;103718.22;4829254;29;19924;-68
2022/02/27 11:55:37;;;;;;;;;;;;;;;-0.56;46.47;103716.50;4844380;29;19931;-67
2022/02/27 11:58:02;;;;;;;;;;;;;;;-0.43;47.33;103714.56;4861031;29;19924;-66
2022/02/27 12:00:38;;;;;;;;;;;;;;;-0.33;49.11;103717.03;4860590;29;19980;-67
2022/02/27 12:03:23;;;;;;;;;;;;;;;-0.26;48.89;103715.22;4861295;29;20003;-65
2022/02/27 12:05:51;;;;;;;;;;;;;;;-0.19;48.15;103711.63;4827840;29;19972;-67
2022/02/27 12:08:20;;;;;;;;;;;;;;;-0.14;47.68;103701.09;4828372;29;19980;-69
2022/02/27 12:10:49;;;;;;;;;;;;;;;-0.10;49.41;103703.63;4828852;29;20022;-67
2022/02/27 12:13:18;;;;;;;;;;;;;;;-0.06;48.07;103697.47;4844433;29;19928;-70
2022/02/27 12:15:43;;;;;;;;;;;;;;;-0.01;48.24;103702.63;4861278;29;19925;-69
2022/02/27 12:18:15;;;;;;;;;;;;;;;-0.05;49.03;103695.69;4828873;29;19931;-70
2022/02/27 12:20:45;;;;;;;;;;;;;;;-0.04;48.85;103686.94;4844130;29;20332;-69
2022/02/27 12:23:34;;;;;;;;;;;;;;;0.02;49.20;103694.75;4861133;29;19928;-69
2022/02/27 12:26:11;;;;;;;;;;;;;;;0.04;49.04;103695.59;4841681;29;19983;-68
2022/02/27 12:28:52;;;;;;;;;;;;;;;0.08;49.08;103697.25;4859859;29;19932;-66
2022/02/27 12:31:29;;;;;;;;;;;;;;;0.08;47.78;103686.78;4860698;29;19928;-65
2022/02/27 12:33:56;;;;;;;;;;;;;;;0.11;49.19;103684.13;4844273;29;19924;-65
2022/02/27 12:36:22;;;;;;;;;;;;;;;0.14;49.12;103688.44;4859253;29;19943;-64
2022/02/27 12:38:48;;;;;;;;;;;;;;;0.13;48.55;103681.47;4860296;29;19928;-68
2022/02/27 12:41:19;;;;;;;;;;;;;;;0.15;48.92;103691.03;4860379;29;19928;-67
2022/02/27 12:43:45;;;;;;;;;;;;;;;0.17;48.74;103689.25;4828647;29;19924;-70